createdAt,value
2022-11-16T00:01:02.747Z,49.80
2022-11-16T00:03:31.557Z,43.10
2022-11-16T00:06:04.775Z,40.00
2022-11-16T00:08:35.071Z,40.80
2022-11-16T00:11:11.673Z,76.70
2022-11-16T00:13:39.950Z,102.30
2022-11-16T00:16:08.433Z,136.00
2022-11-16T00:18:35.865Z,113.40
2022-11-16T00:21:06.135Z,116.30
2022-11-16T00:23:36.051Z,141.60
2022-11-16T00:26:05.661Z,56.30
2022-11-16T00:28:33.315Z,70.10
2022-11-16T00:31:01.907Z,61.40
2022-11-16T00:33:30.567Z,52.80
2022-11-16T00:35:57.973Z,45.30
2022-11-16T00:38:25.046Z,39.80
2022-11-16T00:40:52.350Z,41.80
2022-11-16T00:43:19.477Z,44.50
2022-11-16T00:45:46.679Z,29.30
2022-11-16T00:48:13.802Z,34.10
2022-11-16T00:50:40.927Z,44.10
2022-11-16T00:53:10.894Z,31.60
2022-11-16T00:55:37.976Z,33.40
2022-11-16T00:58:05.144Z,32.50
2022-11-16T01:00:33.036Z,22.00
2022-11-16T01:03:00.087Z,41.70
2022-11-16T01:05:27.467Z,35.50
2022-11-16T01:07:54.616Z,82.60
2022-11-16T01:10:23.635Z,74.10
2022-11-16T01:12:52.194Z,56.00
2022-11-16T01:15:21.265Z,119.70
2022-11-16T01:17:48.825Z,116.20
2022-11-16T01:20:18.947Z,139.00
2022-11-16T01:22:46.685Z,65.70
2022-11-16T01:25:15.339Z,41.20
2022-11-16T01:27:43.540Z,34.80
2022-11-16T01:30:16.713Z,42.20
2022-11-16T01:32:51.543Z,64.80
2022-11-16T01:35:19.258Z,46.00
2022-11-16T01:37:47.368Z,36.60
2022-11-16T01:40:15.477Z,139.30
2022-11-16T01:42:43.833Z,178.70
2022-11-16T01:45:24.270Z,115.40
2022-11-16T01:47:54.770Z,66.00
2022-11-16T01:50:25.969Z,32.10
2022-11-16T01:52:59.008Z,23.40
2022-11-16T01:55:32.517Z,56.10
2022-11-16T01:58:14.812Z,64.90
2022-11-16T02:00:42.534Z,66.60
2022-11-16T02:03:21.406Z,55.30
2022-11-16T02:06:26.179Z,172.50
2022-11-16T02:09:53.077Z,118.30
2022-11-16T02:12:39.254Z,77.30
2022-11-16T02:15:30.479Z,44.10
2022-11-16T02:18:14.930Z,28.60
2022-11-16T02:21:06.068Z,47.50
2022-11-16T02:23:52.054Z,29.90
2022-11-16T02:26:34.427Z,34.10
2022-11-16T02:29:19.977Z,25.40
2022-11-16T02:32:12.339Z,24.70
2022-11-16T02:34:47.929Z,41.40
2022-11-16T02:39:48.336Z,35.20
2022-11-16T02:42:21.865Z,25.20
2022-11-16T02:44:54.429Z,25.30
2022-11-16T02:47:27.334Z,26.00
2022-11-16T02:50:16.374Z,34.20
2022-11-16T02:52:43.711Z,77.40
2022-11-16T02:55:11.758Z,46.40
2022-11-16T02:57:53.592Z,29.30
2022-11-16T03:00:23.448Z,33.00
2022-11-16T03:03:12.118Z,39.60
2022-11-16T03:06:14.142Z,26.90
2022-11-16T03:08:48.154Z,32.60
2022-11-16T03:11:33.638Z,75.50
2022-11-16T03:14:06.305Z,87.90
2022-11-16T03:16:38.388Z,67.30
2022-11-16T03:19:12.585Z,48.40
2022-11-16T03:21:52.179Z,46.10
2022-11-16T03:24:20.691Z,30.40
2022-11-16T03:27:23.196Z,25.90
2022-11-16T03:30:07.338Z,31.10
2022-11-16T03:32:39.498Z,30.20
2022-11-16T03:35:51.341Z,153.00
2022-11-16T03:38:20.818Z,56.60
2022-11-16T03:40:49.774Z,57.80
2022-11-16T03:43:19.275Z,56.20
2022-11-16T03:45:47.206Z,43.70
2022-11-16T03:48:14.365Z,38.90
2022-11-16T03:50:42.903Z,29.00
2022-11-16T03:53:10.323Z,31.00
2022-11-16T03:55:38.148Z,24.40
2022-11-16T03:58:06.274Z,25.80
2022-11-16T04:00:33.676Z,25.10
2022-11-16T04:03:05.710Z,25.80
2022-11-16T04:05:51.517Z,23.80
2022-11-16T04:08:37.258Z,27.90
2022-11-16T04:11:23.098Z,24.20
2022-11-16T04:14:10.416Z,19.90
2022-11-16T04:16:58.107Z,22.10
2022-11-16T04:19:43.606Z,21.50
2022-11-16T04:22:37.924Z,19.50
2022-11-16T04:25:10.652Z,18.10
2022-11-16T04:27:56.681Z,18.40
2022-11-16T04:30:23.987Z,21.50
2022-11-16T04:33:09.481Z,22.60
2022-11-16T04:35:55.128Z,15.80
2022-11-16T04:38:23.617Z,20.90
2022-11-16T04:40:50.764Z,19.20
2022-11-16T04:43:17.964Z,18.90
2022-11-16T04:46:03.671Z,18.60
2022-11-16T04:48:36.505Z,16.60
2022-11-16T04:51:04.487Z,16.70
2022-11-16T04:53:32.153Z,14.40
2022-11-16T04:56:04.892Z,18.40
2022-11-16T04:58:32.700Z,17.70
2022-11-16T05:01:00.273Z,16.50
2022-11-16T05:03:28.096Z,20.80
2022-11-16T05:05:55.786Z,13.30
2022-11-16T05:08:23.048Z,13.60
2022-11-16T05:10:52.426Z,13.90
2022-11-16T05:13:19.625Z,13.50
2022-11-16T05:15:46.950Z,23.50
2022-11-16T05:18:14.094Z,27.90
2022-11-16T05:20:59.877Z,12.20
2022-11-16T05:23:46.187Z,9.70
2022-11-16T05:26:14.115Z,35.60
2022-11-16T05:28:41.620Z,12.90
2022-11-16T05:31:09.395Z,12.10
2022-11-16T05:33:36.620Z,20.50
2022-11-16T05:36:04.498Z,26.10
2022-11-16T05:38:31.944Z,47.70
2022-11-16T05:41:00.000Z,19.20
2022-11-16T05:43:29.605Z,7.80
2022-11-16T05:46:06.854Z,30.00
2022-11-16T05:48:34.252Z,39.60
2022-11-16T05:51:01.446Z,70.50
2022-11-16T05:53:30.772Z,35.00
2022-11-16T05:55:58.109Z,24.90
2022-11-16T05:58:25.295Z,27.70
2022-11-16T06:00:52.573Z,41.60
2022-11-16T06:03:20.072Z,21.70
2022-11-16T06:08:32.030Z,22.50
2022-11-16T06:11:08.631Z,17.90
2022-11-16T06:16:05.308Z,8.90
2022-11-16T06:18:38.778Z,12.10
2022-11-16T06:21:06.181Z,9.30
2022-11-16T06:23:34.022Z,7.20
2022-11-16T06:26:01.515Z,8.50
2022-11-16T06:28:30.317Z,13.20
2022-11-16T06:30:57.391Z,10.50
2022-11-16T06:33:28.539Z,16.50
2022-11-16T06:35:58.313Z,9.20
2022-11-16T06:38:25.554Z,7.10
2022-11-16T06:40:54.944Z,6.00
2022-11-16T06:43:23.561Z,4.50
2022-11-16T06:45:52.612Z,6.90
2022-11-16T06:48:20.373Z,14.90
2022-11-16T06:50:49.207Z,34.40
2022-11-16T06:53:17.817Z,19.40
2022-11-16T06:55:45.579Z,16.60
2022-11-16T06:58:13.225Z,43.70
2022-11-16T07:00:43.246Z,18.70
2022-11-16T07:03:10.633Z,82.80
2022-11-16T07:05:42.129Z,66.10
2022-11-16T07:08:12.353Z,140.90
2022-11-16T07:10:40.564Z,103.60
2022-11-16T07:13:07.828Z,164.60
2022-11-16T07:15:36.027Z,130.80
2022-11-16T07:18:05.480Z,205.70
2022-11-16T07:20:33.464Z,244.30
2022-11-16T07:23:01.670Z,125.80
2022-11-16T07:25:29.593Z,68.50
2022-11-16T07:27:58.445Z,20.70
2022-11-16T07:30:26.457Z,27.30
2022-11-16T07:33:03.402Z,23.00
2022-11-16T07:35:53.356Z,25.10
2022-11-16T07:38:20.759Z,30.70
2022-11-16T07:40:47.960Z,39.00
2022-11-16T07:43:17.506Z,61.90
2022-11-16T07:46:44.698Z,51.70
2022-11-16T07:48:53.978Z,52.90
2022-11-16T07:51:40.185Z,24.00
2022-11-16T07:54:17.400Z,26.20
2022-11-16T07:56:44.547Z,6.30
2022-11-16T07:59:11.706Z,14.00
2022-11-16T08:01:41.737Z,14.80
2022-11-16T08:04:10.916Z,11.70
2022-11-16T08:06:38.531Z,34.40
2022-11-16T08:09:05.576Z,29.60
2022-11-16T08:11:32.967Z,27.90
2022-11-16T08:14:00.210Z,12.80
2022-11-16T08:16:28.009Z,13.50
2022-11-16T08:19:01.336Z,6.30
2022-11-16T08:21:28.594Z,14.10
2022-11-16T08:23:58.747Z,13.70
2022-11-16T08:26:27.760Z,8.90
2022-11-16T08:28:59.296Z,18.90
2022-11-16T08:31:30.032Z,25.20
2022-11-16T08:34:06.087Z,14.50
2022-11-16T08:36:33.683Z,24.00
2022-11-16T08:39:02.198Z,19.60
2022-11-16T08:41:32.766Z,21.40
2022-11-16T08:44:01.204Z,12.20
2022-11-16T08:46:29.767Z,17.60
2022-11-16T08:49:03.776Z,18.60
2022-11-16T08:51:30.801Z,24.00
2022-11-16T08:54:04.043Z,11.30
2022-11-16T08:56:31.175Z,7.60
2022-11-16T08:58:59.551Z,7.40
2022-11-16T09:01:29.099Z,3.40
2022-11-16T09:03:56.517Z,6.60
2022-11-16T09:06:25.229Z,8.10
2022-11-16T09:08:52.604Z,8.60
2022-11-16T09:11:23.418Z,3.30
2022-11-16T09:13:52.118Z,11.30
2022-11-16T09:16:21.126Z,9.60
2022-11-16T09:18:50.559Z,5.70
2022-11-16T09:21:23.247Z,13.10
2022-11-16T09:23:50.880Z,9.90
2022-11-16T09:26:21.373Z,3.20
2022-11-16T09:28:53.477Z,10.00
2022-11-16T09:31:23.594Z,7.60
2022-11-16T09:33:51.203Z,4.90
2022-11-16T09:36:18.320Z,2.70
2022-11-16T09:39:17.746Z,2.30
2022-11-16T09:41:48.395Z,8.10
2022-11-16T09:44:37.986Z,8.90
2022-11-16T09:47:13.517Z,45.10
2022-11-16T09:49:46.276Z,56.00
2022-11-16T09:52:25.206Z,21.30
2022-11-16T09:54:54.308Z,7.60
2022-11-16T09:57:29.213Z,3.60
2022-11-16T10:00:01.001Z,3.70
2022-11-16T10:02:42.876Z,9.30
2022-11-16T10:05:28.146Z,15.80
2022-11-16T10:08:13.737Z,12.50
2022-11-16T10:10:53.217Z,24.70
2022-11-16T10:13:45.106Z,32.40
2022-11-16T10:16:27.134Z,27.10
2022-11-16T10:19:31.158Z,11.70
2022-11-16T10:22:39.867Z,11.90
2022-11-16T10:25:15.605Z,9.60
2022-11-16T10:28:14.800Z,21.50
2022-11-16T10:31:12.044Z,17.50
2022-11-16T10:33:41.823Z,34.00
2022-11-16T10:36:14.414Z,20.00
2022-11-16T10:38:43.499Z,147.10
2022-11-16T10:41:18.719Z,121.40
2022-11-16T10:43:46.242Z,29.20
2022-11-16T10:46:24.741Z,34.60
2022-11-16T10:49:07.339Z,11.60
2022-11-16T10:51:34.471Z,11.60
2022-11-16T10:54:01.462Z,31.40
2022-11-16T10:56:37.479Z,11.90
2022-11-16T10:59:07.145Z,4.50
2022-11-16T11:01:36.464Z,81.40
2022-11-16T11:04:27.927Z,122.80
2022-11-16T11:06:57.499Z,175.60
2022-11-16T11:09:31.858Z,23.60
2022-11-16T11:12:36.130Z,10.60
2022-11-16T11:15:12.372Z,8.90
2022-11-16T11:17:44.928Z,15.90
2022-11-16T11:20:15.036Z,14.20
2022-11-16T11:22:58.147Z,22.10
2022-11-16T11:25:38.981Z,11.80
2022-11-16T11:28:24.442Z,25.40
2022-11-16T11:31:03.722Z,12.40
2022-11-16T11:33:44.195Z,16.40
2022-11-16T11:36:19.292Z,29.50
2022-11-16T11:39:00.227Z,9.90
2022-11-16T11:41:35.472Z,7.20
2022-11-16T11:44:19.383Z,20.30
2022-11-16T11:47:50.470Z,20.70
2022-11-16T11:50:07.263Z,15.70
2022-11-16T11:52:47.328Z,28.70
2022-11-16T11:55:17.737Z,29.20
2022-11-16T11:57:47.771Z,18.50
2022-11-16T12:00:15.787Z,14.50
2022-11-16T12:03:01.149Z,21.50
2022-11-16T12:05:46.063Z,21.10
2022-11-16T12:08:31.666Z,21.80
2022-11-16T12:11:22.237Z,12.50
2022-11-16T12:13:59.324Z,7.20
2022-11-16T12:16:39.692Z,6.90
2022-11-16T12:19:32.536Z,8.40
2022-11-16T12:22:05.519Z,4.70
2022-11-16T12:24:50.422Z,7.70
2022-11-16T12:27:27.180Z,2.80
2022-11-16T12:30:20.080Z,19.40
2022-11-16T12:33:14.912Z,9.10
2022-11-16T12:35:54.342Z,8.50
2022-11-16T12:38:42.581Z,9.20
2022-11-16T12:41:46.888Z,16.20
2022-11-16T12:44:31.618Z,24.80
2022-11-16T12:47:24.841Z,28.50
2022-11-16T12:50:07.231Z,10.70
2022-11-16T12:52:40.126Z,16.90
2022-11-16T12:55:33.046Z,22.30
2022-11-16T12:58:14.588Z,10.10
2022-11-16T13:00:53.701Z,41.00
2022-11-16T13:03:33.535Z,19.30
2022-11-16T13:06:08.617Z,6.80
2022-11-16T13:08:56.315Z,8.30
2022-11-16T13:11:27.356Z,21.80
2022-11-16T13:14:01.460Z,92.80
2022-11-16T13:16:29.186Z,29.80
2022-11-16T13:18:58.125Z,23.70
2022-11-16T13:21:34.216Z,10.80
2022-11-16T13:24:32.161Z,13.00
2022-11-16T13:26:59.173Z,7.70
2022-11-16T13:29:52.603Z,4.90
2022-11-16T13:32:25.563Z,9.90
2022-11-16T13:34:53.209Z,7.80
2022-11-16T13:37:52.589Z,10.10
2022-11-16T13:40:26.213Z,9.90
2022-11-16T13:43:11.801Z,9.30
2022-11-16T13:45:44.235Z,10.40
2022-11-16T13:48:37.068Z,7.50
2022-11-16T13:51:07.227Z,5.00
2022-11-16T13:56:29.395Z,3.50
2022-11-16T13:58:57.735Z,3.60
2022-11-16T14:01:24.974Z,11.90
2022-11-16T14:04:12.650Z,6.00
2022-11-16T14:06:42.944Z,15.00
2022-11-16T14:09:46.512Z,16.10
2022-11-16T14:12:38.437Z,49.20
2022-11-16T14:15:17.107Z,50.10
2022-11-16T14:18:09.296Z,22.70
2022-11-16T14:20:52.356Z,23.90
2022-11-16T14:23:46.797Z,27.10
2022-11-16T14:26:41.679Z,33.30
2022-11-16T14:29:08.753Z,23.30
2022-11-16T14:31:52.454Z,10.50
2022-11-16T14:34:32.700Z,21.00
2022-11-16T14:37:00.746Z,11.50
2022-11-16T14:39:37.622Z,8.80
2022-11-16T14:42:15.012Z,9.80
2022-11-16T14:44:43.290Z,8.00
2022-11-16T14:47:23.645Z,5.60
2022-11-16T14:49:51.080Z,6.70
2022-11-16T14:52:24.646Z,7.30
2022-11-16T14:54:55.509Z,5.00
2022-11-16T14:57:24.094Z,7.60
2022-11-16T15:00:08.860Z,17.60
2022-11-16T15:02:37.360Z,15.00
2022-11-16T15:05:04.845Z,17.40
2022-11-16T15:07:32.009Z,15.30
2022-11-16T15:10:00.623Z,14.80
2022-11-16T15:12:44.158Z,9.00
2022-11-16T15:15:11.143Z,7.80
2022-11-16T15:17:40.161Z,8.20
2022-11-16T15:20:16.417Z,3.30
2022-11-16T15:22:46.145Z,4.00
2022-11-16T15:25:36.896Z,5.90
2022-11-16T15:28:06.662Z,5.70
2022-11-16T15:30:37.500Z,5.80
2022-11-16T15:33:10.697Z,3.60
2022-11-16T15:35:38.484Z,15.90
2022-11-16T15:38:05.437Z,19.50
2022-11-16T15:40:34.324Z,12.60
2022-11-16T15:43:04.313Z,18.80
2022-11-16T15:45:32.727Z,10.70
2022-11-16T15:48:03.399Z,40.60
2022-11-16T15:50:31.086Z,26.00
2022-11-16T15:52:59.883Z,40.60
2022-11-16T15:55:34.170Z,53.50
2022-11-16T15:58:02.533Z,69.90
2022-11-16T16:00:30.687Z,76.00
2022-11-16T16:03:06.066Z,64.40
2022-11-16T16:05:36.903Z,69.00
2022-11-16T16:08:04.363Z,25.80
2022-11-16T16:10:31.700Z,16.40
2022-11-16T16:13:00.922Z,44.60
2022-11-16T16:15:36.724Z,28.80
2022-11-16T16:18:14.003Z,17.30
2022-11-16T16:20:47.730Z,39.20
2022-11-16T16:23:17.991Z,38.50
2022-11-16T16:25:50.344Z,77.90
2022-11-16T16:28:17.755Z,51.30
2022-11-16T16:30:44.796Z,67.30
2022-11-16T16:33:20.022Z,76.90
2022-11-16T16:35:49.865Z,52.10
2022-11-16T16:38:17.108Z,48.70
2022-11-16T16:40:44.151Z,35.20
2022-11-16T16:43:11.100Z,38.80
2022-11-16T16:45:41.492Z,39.80
2022-11-16T16:48:09.536Z,53.60
2022-11-16T16:50:36.808Z,34.20
2022-11-16T16:53:04.175Z,44.30
2022-11-16T16:55:36.777Z,30.40
2022-11-16T16:58:05.076Z,40.50
2022-11-16T17:00:32.048Z,55.20
2022-11-16T17:02:59.123Z,30.10
2022-11-16T17:05:28.941Z,45.90
2022-11-16T17:07:56.400Z,67.60
2022-11-16T17:10:23.495Z,83.30
2022-11-16T17:12:53.787Z,73.20
2022-11-16T17:15:21.001Z,62.50
2022-11-16T17:17:48.382Z,40.80
2022-11-16T17:20:16.467Z,100.60
2022-11-16T17:22:43.626Z,71.70
2022-11-16T17:25:10.897Z,38.10
2022-11-16T17:27:37.926Z,55.80
2022-11-16T17:30:05.373Z,39.20
2022-11-16T17:32:32.390Z,72.90
2022-11-16T17:34:59.322Z,43.90
2022-11-16T17:37:26.611Z,23.70
2022-11-16T17:39:53.558Z,38.60
2022-11-16T17:42:20.534Z,165.20
2022-11-16T17:44:47.578Z,131.30
2022-11-16T17:47:14.594Z,67.00
2022-11-16T17:49:41.672Z,29.20
2022-11-16T17:52:08.733Z,37.80
2022-11-16T17:54:35.738Z,20.00
2022-11-16T17:57:02.778Z,39.30
2022-11-16T17:59:30.229Z,33.70
2022-11-16T18:01:58.147Z,22.40
2022-11-16T18:04:25.515Z,26.90
2022-11-16T18:06:52.626Z,17.10
2022-11-16T18:09:19.720Z,13.10
2022-11-16T18:11:46.748Z,34.60
2022-11-16T18:14:13.768Z,84.40
2022-11-16T18:16:43.309Z,22.40
2022-11-16T18:19:16.141Z,41.60
2022-11-16T18:21:44.016Z,21.70
2022-11-16T18:24:11.931Z,21.70
2022-11-16T18:26:40.400Z,20.90
2022-11-16T18:29:09.441Z,28.50
2022-11-16T18:31:36.471Z,48.20
2022-11-16T18:34:03.543Z,39.40
2022-11-16T18:36:30.596Z,25.90
2022-11-16T18:38:57.675Z,59.50
2022-11-16T18:41:29.043Z,31.40
2022-11-16T18:44:00.793Z,61.70
2022-11-16T18:46:30.310Z,64.20
2022-11-16T18:48:57.830Z,37.70
2022-11-16T18:51:27.110Z,104.60
2022-11-16T18:53:54.667Z,59.10
2022-11-16T18:56:21.991Z,61.10
2022-11-16T18:58:50.735Z,65.40
2022-11-16T19:01:22.209Z,65.20
2022-11-16T19:03:49.805Z,60.20
2022-11-16T19:06:18.019Z,42.00
2022-11-16T19:08:51.835Z,45.00
2022-11-16T19:11:23.324Z,45.50
2022-11-16T19:13:54.329Z,37.80
2022-11-16T19:16:21.831Z,72.00
2022-11-16T19:18:48.812Z,92.70
2022-11-16T19:21:21.905Z,27.60
2022-11-16T19:23:51.834Z,29.90
2022-11-16T19:26:20.644Z,63.10
2022-11-16T19:28:49.653Z,68.60
2022-11-16T19:31:27.076Z,24.30
2022-11-16T19:34:02.599Z,23.60
2022-11-16T19:36:31.160Z,24.00
2022-11-16T19:38:58.727Z,23.70
2022-11-16T19:41:26.649Z,62.40
2022-11-16T19:43:59.904Z,139.70
2022-11-16T19:46:32.054Z,61.00
2022-11-16T19:49:00.398Z,62.50
2022-11-16T19:51:31.952Z,126.70
2022-11-16T19:54:00.389Z,121.60
2022-11-16T19:56:27.583Z,53.00
2022-11-16T19:58:54.734Z,58.60
2022-11-16T20:01:26.216Z,29.00
2022-11-16T20:03:53.824Z,25.70
2022-11-16T20:06:23.638Z,46.10
2022-11-16T20:08:52.894Z,29.20
2022-11-16T20:11:22.815Z,24.70
2022-11-16T20:13:51.776Z,26.90
2022-11-16T20:16:23.516Z,47.00
2022-11-16T20:18:52.174Z,47.70
2022-11-16T20:21:30.679Z,37.40
2022-11-16T20:24:01.674Z,64.10
2022-11-16T20:26:34.128Z,24.50
2022-11-16T20:29:01.247Z,89.50
2022-11-16T20:31:30.527Z,51.80
2022-11-16T20:34:00.046Z,139.80
2022-11-16T20:36:29.575Z,90.80
2022-11-16T20:38:58.013Z,129.90
2022-11-16T20:41:27.704Z,52.40
2022-11-16T20:43:56.286Z,158.70
2022-11-16T20:46:26.064Z,78.50
2022-11-16T20:48:53.118Z,284.20
2022-11-16T20:51:20.558Z,269.60
2022-11-16T20:53:49.397Z,79.80
2022-11-16T20:56:19.317Z,44.70
2022-11-16T20:58:47.313Z,25.10
2022-11-16T21:01:28.230Z,26.20
2022-11-16T21:03:56.235Z,14.30
2022-11-16T21:06:23.308Z,28.50
2022-11-16T21:08:50.334Z,24.30
2022-11-16T21:11:20.133Z,17.20
2022-11-16T21:14:06.174Z,25.70
2022-11-16T21:16:34.342Z,32.80
2022-11-16T21:19:01.685Z,29.60
2022-11-16T21:21:29.086Z,27.90
2022-11-16T21:23:56.035Z,41.40
2022-11-16T21:26:27.819Z,28.30
2022-11-16T21:28:55.627Z,35.10
2022-11-16T21:31:28.105Z,159.70
2022-11-16T21:33:55.961Z,72.40
2022-11-16T21:36:25.384Z,269.60
2022-11-16T21:38:53.232Z,264.40
2022-11-16T21:41:22.327Z,186.90
2022-11-16T21:43:49.727Z,119.90
2022-11-16T21:46:18.973Z,54.00
2022-11-16T21:48:47.866Z,30.50
2022-11-16T21:51:17.502Z,69.30
2022-11-16T21:53:44.800Z,112.80
2022-11-16T21:56:14.091Z,101.30
2022-11-16T21:58:41.975Z,129.20
2022-11-16T22:01:10.437Z,122.70
2022-11-16T22:03:38.413Z,29.70
2022-11-16T22:06:25.515Z,42.90
2022-11-16T22:08:52.723Z,73.40
2022-11-16T22:11:22.400Z,52.10
2022-11-16T22:13:50.362Z,72.80
2022-11-16T22:16:19.005Z,57.10
2022-11-16T22:18:46.505Z,50.60
2022-11-16T22:21:13.748Z,83.70
2022-11-16T22:23:41.011Z,77.00
2022-11-16T22:26:10.847Z,83.60
2022-11-16T22:31:53.221Z,186.80
2022-11-16T22:34:20.285Z,196.00
2022-11-16T22:36:47.423Z,32.70
2022-11-16T22:39:14.493Z,57.20
2022-11-16T22:41:42.029Z,27.30
2022-11-16T22:44:09.102Z,23.80
2022-11-16T22:46:36.254Z,66.30
2022-11-16T22:49:03.310Z,116.70
2022-11-16T22:51:30.607Z,148.80
2022-11-16T22:54:00.087Z,51.40
2022-11-16T22:56:28.673Z,223.50
2022-11-16T22:58:56.025Z,48.60
2022-11-16T23:01:23.436Z,16.40
2022-11-16T23:03:50.884Z,17.30
2022-11-16T23:06:18.348Z,10.10
2022-11-16T23:08:47.522Z,6.60
2022-11-16T23:11:36.228Z,8.10
2022-11-16T23:14:22.935Z,6.40
2022-11-16T23:16:50.807Z,6.80
2022-11-16T23:19:38.077Z,5.50
2022-11-16T23:22:27.396Z,5.40
2022-11-16T23:25:13.491Z,4.90
2022-11-16T23:27:49.489Z,5.30
2022-11-16T23:30:17.037Z,5.30
2022-11-16T23:32:44.160Z,5.20
2022-11-16T23:35:14.869Z,4.00
2022-11-16T23:37:56.767Z,4.70
2022-11-16T23:40:26.858Z,5.40
2022-11-16T23:43:13.261Z,5.60
2022-11-16T23:45:41.911Z,8.10
2022-11-16T23:48:11.457Z,4.40
2022-11-16T23:50:39.131Z,3.90
2022-11-16T23:53:07.986Z,4.60
2022-11-16T23:55:38.658Z,4.50
2022-11-16T23:58:06.740Z,6.20
